Terminal Aerodrome Forecast
Issued by NWS Binghamton, NY

Current Version | Previous Version | Text Only | Print | Product List | Glossary On
Versions: 1 2 3 4 5 6 7 8 9 10 11 12 13 14 15 16 17 18 19 20 21 22 23 24 25 26 27 28 29 30 31 32 33 34 35 36 37 38 39 40 41 42 43 44 45 46
000
FTUS41 KBGM 131740
TAFBGM
TAF
KBGM 131740Z 1318/1418 18004KT P6SM SCT035
      TEMPO 1322/1402 4SM TSRA BR OVC030CB
     FM140200 18005KT 6SM -SHRA BR BKN020
     FM140500 20005KT 5SM BR VCSH BKN010
     FM140700 20005KT 3SM BR BKN005
     FM141400 25006KT P6SM VCSH BKN014=

USA.gov is the U.S. government's official web portal to all federal, state and local government web resources and services.